Terminal Aerodrome Forecast
Issued by NWS

Home | Current Version | Previous Version | Text Only | Print | Product List | Glossary On
Versions: 1 2 3 4 5 6 7 8 9 10 11 12 13 14 15 16 17 18
000
FTUS43 KUNR 260520
TAFGCC
TAF
KGCC 260520Z 2606/2706 VRB05KT P6SM SCT080
     FM261300 17010KT P6SM BKN050
      TEMPO 2622/2702 5SM -TSRA BKN050CB=

USA.gov is the U.S. government's official web portal to all federal, state and local government web resources and services.